^^
Station Historical Data
Daily Summary for January 19, 2017 Units:  Both    English   Metric
« Previous Day
Next Day »
Daily Weekly Monthly Yearly Custom
  High: Low: Average:
Temperature: 89.4 °F /  31.9 °C 62.4 °F /  16.9 °C 77.5 °F /  25.3 °C
Dew Point: 57.2 °F /  14 °C 36.7 °F /  2.6 °C 47.7 °F /  8.7 °C
Humidity: 73% 17% 39%
Wind Speed: 10.1mph /  16.3km/h - 2.4mph /  3.9km/h
Wind Gust: 15.0mph /  24.1km/h - -
Wind- - SE
Pressure: 29.76 in /  1007.7 hPa 29.61 in /  1002.6 hPa -
Precipitation: 0.00 in /  0 mm    
Historical Graphs
 
 
Tabular Data for January 19, 2017
Time Temperature Dew Point Pressure Wind Wind Speed Wind Gust Humidity Rainfall Rate (Hourly) solar Conditions
00:00 72.0 °F /  22.2 °C 48.9 °F /  9.4 °C 29.75in /  1007.3hPa Calm   2.0mph /  3.2km/h 44% 0.00in /  0mm 0.0 W/m2
00:06 71.8 °F /  22.1 °C 49.3 °F /  9.6 °C 29.75in /  1007.3hPa Calm   4.0mph /  6.4km/h 45% 0.00in /  0mm 0.0 W/m2
00:12 71.4 °F /  21.9 °C 48.9 °F /  9.4 °C 29.75in /  1007.3hPa Calm   2.0mph /  3.2km/h 45% 0.00in /  0mm 0.0 W/m2
00:18 71.1 °F /  21.7 °C 49.3 °F /  9.6 °C 29.75in /  1007.3hPa Calm   1.0mph /  1.6km/h 46% 0.00in /  0mm 0.0 W/m2
00:24 70.9 °F /  21.6 °C 49.6 °F /  9.8 °C 29.75in /  1007.3hPa Calm   3.0mph /  4.8km/h 47% 0.00in /  0mm 0.0 W/m2
00:30 70.5 °F /  21.4 °C 49.8 °F /  9.9 °C 29.75in /  1007.3hPa Calm   3.0mph /  4.8km/h 48% 0.00in /  0mm 0.0 W/m2
00:36 70.3 °F /  21.3 °C 49.6 °F /  9.8 °C 29.75in /  1007.3hPa NNE 2.0mph /  3.2km/h 3.0mph /  4.8km/h 48% 0.00in /  0mm 0.0 W/m2
00:42 70.2 °F /  21.2 °C 50.2 °F /  10.1 °C 29.75in /  1007.3hPa ENE 2.0mph /  3.2km/h 3.0mph /  4.8km/h 49% 0.00in /  0mm 0.0 W/m2
00:48 70.0 °F /  21.1 °C 50.0 °F /  10 °C 29.75in /  1007.3hPa Calm   1.0mph /  1.6km/h 49% 0.00in /  0mm 0.0 W/m2
00:54 69.8 °F /  21 °C 50.4 °F /  10.2 °C 29.75in /  1007.3hPa Calm   1.0mph /  1.6km/h 50% 0.00in /  0mm 0.0 W/m2
01:00 69.8 °F /  21 °C 50.4 °F /  10.2 °C 29.74in /  1007hPa Calm   1.0mph /  1.6km/h 50% 0.00in /  0mm 0.0 W/m2
01:06 69.8 °F /  21 °C 50.9 °F /  10.5 °C 29.74in /  1007hPa Calm   2.0mph /  3.2km/h 51% 0.00in /  0mm 0.0 W/m2
01:12 69.6 °F /  20.9 °C 50.7 °F /  10.4 °C 29.74in /  1007hPa Calm   2.0mph /  3.2km/h 51% 0.00in /  0mm 0.0 W/m2
01:18 69.8 °F /  21 °C 50.9 °F /  10.5 °C 29.74in /  1007hPa Calm   1.0mph /  1.6km/h 51% 0.00in /  0mm 0.0 W/m2
01:24 69.8 °F /  21 °C 50.9 °F /  10.5 °C 29.74in /  1007hPa Calm   2.0mph /  3.2km/h 51% 0.00in /  0mm 0.0 W/m2
01:30 69.8 °F /  21 °C 51.4 °F /  10.8 °C 29.74in /  1007hPa Calm   2.0mph /  3.2km/h 52% 0.00in /  0mm 0.0 W/m2
01:36 69.8 °F /  21 °C 51.4 °F /  10.8 °C 29.74in /  1007hPa Calm   3.0mph /  4.8km/h 52% 0.00in /  0mm 0.0 W/m2
01:42 69.8 °F /  21 °C 51.4 °F /  10.8 °C 29.73in /  1006.7hPa East 0.9mph /  1.4km/h 3.0mph /  4.8km/h 52% 0.00in /  0mm 0.0 W/m2
01:48 69.8 °F /  21 °C 51.4 °F /  10.8 °C 29.73in /  1006.7hPa Calm   3.0mph /  4.8km/h 52% 0.00in /  0mm 0.0 W/m2
01:56 69.6 °F /  20.9 °C 51.3 °F /  10.7 °C 29.73in /  1006.7hPa ENE 0.9mph /  1.4km/h 4.0mph /  6.4km/h 52% 0.00in /  0mm 0.0 W/m2
02:03 69.6 °F /  20.9 °C 51.8 °F /  11 °C 29.73in /  1006.7hPa Calm   1.0mph /  1.6km/h 53% 0.00in /  0mm 0.0 W/m2
02:08 69.6 °F /  20.9 °C 51.8 °F /  11 °C 29.73in /  1006.7hPa NNW 0.9mph /  1.4km/h 3.0mph /  4.8km/h 53% 0.00in /  0mm 0.0 W/m2
02:14 69.4 °F /  20.8 °C 51.6 °F /  10.9 °C 29.72in /  1006.3hPa Calm   2.0mph /  3.2km/h 53% 0.00in /  0mm 0.0 W/m2
02:20 69.3 °F /  20.7 °C 51.4 °F /  10.8 °C 29.72in /  1006.3hPa NE 0.9mph /  1.4km/h 2.0mph /  3.2km/h 53% 0.00in /  0mm 0.0 W/m2
02:26 69.3 °F /  20.7 °C 52.0 °F /  11.1 °C 29.72in /  1006.3hPa Calm   1.0mph /  1.6km/h 54% 0.00in /  0mm 0.0 W/m2
02:33 69.1 °F /  20.6 °C 51.8 °F /  11 °C 29.72in /  1006.3hPa ENE 0.9mph /  1.4km/h 2.0mph /  3.2km/h 54% 0.00in /  0mm 0.0 W/m2
03:03 67.6 °F /  19.8 °C 51.8 °F /  11 °C 29.71in /  1006hPa Calm   1.0mph /  1.6km/h 57% 0.00in /  0mm 0.0 W/m2
03:09 67.3 °F /  19.6 °C 52.0 °F /  11.1 °C 29.71in /  1006hPa Calm     58% 0.00in /  0mm 0.0 W/m2
04:17 65.5 °F /  18.6 °C 52.2 °F /  11.2 °C 29.70in /  1005.6hPa Calm   2.0mph /  3.2km/h 62% 0.00in /  0mm 0.0 W/m2
04:37 64.8 °F /  18.2 °C 52.3 °F /  11.3 °C 29.70in /  1005.6hPa ENE 0.9mph /  1.4km/h 1.0mph /  1.6km/h 64% 0.00in /  0mm 0.0 W/m2
04:43 64.8 °F /  18.2 °C 52.3 °F /  11.3 °C 29.70in /  1005.6hPa Calm   1.0mph /  1.6km/h 64% 0.00in /  0mm 0.0 W/m2
05:07 64.2 °F /  17.9 °C 52.2 °F /  11.2 °C 29.71in /  1006hPa NE 0.9mph /  1.4km/h 1.0mph /  1.6km/h 65% 0.00in /  0mm 0.0 W/m2
05:14 64.0 °F /  17.8 °C 52.0 °F /  11.1 °C 29.71in /  1006hPa Calm   2.0mph /  3.2km/h 65% 0.00in /  0mm 0.0 W/m2
05:20 64.0 °F /  17.8 °C 52.0 °F /  11.1 °C 29.71in /  1006hPa Calm   3.0mph /  4.8km/h 65% 0.00in /  0mm 0.0 W/m2
05:26 64.0 °F /  17.8 °C 52.5 °F /  11.4 °C 29.71in /  1006hPa ENE 0.9mph /  1.4km/h 4.0mph /  6.4km/h 66% 0.00in /  0mm 0.0 W/m2
05:32 63.9 °F /  17.7 °C 52.3 °F /  11.3 °C 29.71in /  1006hPa Calm   4.0mph /  6.4km/h 66% 0.00in /  0mm 0.0 W/m2
05:38 63.9 °F /  17.7 °C 52.3 °F /  11.3 °C 29.72in /  1006.3hPa ESE 2.9mph /  4.7km/h 4.0mph /  6.4km/h 66% 0.00in /  0mm 0.0 W/m2
05:46 63.7 °F /  17.6 °C 52.5 °F /  11.4 °C 29.72in /  1006.3hPa East 0.9mph /  1.4km/h 3.0mph /  4.8km/h 67% 0.00in /  0mm 0.0 W/m2
05:52 63.7 °F /  17.6 °C 52.5 °F /  11.4 °C 29.72in /  1006.3hPa ENE 2.0mph /  3.2km/h 4.0mph /  6.4km/h 67% 0.00in /  0mm 0.0 W/m2
06:01 63.3 °F /  17.4 °C 52.5 °F /  11.4 °C 29.72in /  1006.3hPa East 0.9mph /  1.4km/h 2.0mph /  3.2km/h 68% 0.00in /  0mm 0.0 W/m2
06:07 63.1 °F /  17.3 °C 52.3 °F /  11.3 °C 29.72in /  1006.3hPa NNE 2.9mph /  4.7km/h 4.0mph /  6.4km/h 68% 0.00in /  0mm 0.0 W/m2
06:13 63.0 °F /  17.2 °C 52.7 °F /  11.5 °C 29.72in /  1006.3hPa Calm   1.0mph /  1.6km/h 69% 0.00in /  0mm 0.0 W/m2
06:19 63.0 °F /  17.2 °C 52.7 °F /  11.5 °C 29.73in /  1006.7hPa Calm   2.0mph /  3.2km/h 69% 0.00in /  0mm 0.0 W/m2
06:25 62.8 °F /  17.1 °C 52.9 °F /  11.6 °C 29.73in /  1006.7hPa East 0.9mph /  1.4km/h 3.0mph /  4.8km/h 70% 0.00in /  0mm 0.0 W/m2
06:31 62.8 °F /  17.1 °C 52.9 °F /  11.6 °C 29.73in /  1006.7hPa Calm   3.0mph /  4.8km/h 70% 0.00in /  0mm 7.0 W/m2
06:37 62.6 °F /  17 °C 53.1 °F /  11.7 °C 29.74in /  1007hPa Calm   1.0mph /  1.6km/h 71% 0.00in /  0mm 9.0 W/m2
06:44 62.4 °F /  16.9 °C 52.9 °F /  11.6 °C 29.74in /  1007hPa Calm     71% 0.00in /  0mm 11.0 W/m2
06:50 62.4 °F /  16.9 °C 53.2 °F /  11.8 °C 29.74in /  1007hPa Calm   2.0mph /  3.2km/h 72% 0.00in /  0mm 14.0 W/m2
06:58 62.4 °F /  16.9 °C 53.2 °F /  11.8 °C 29.74in /  1007hPa Calm   1.0mph /  1.6km/h 72% 0.00in /  0mm 16.0 W/m2
07:04 62.6 °F /  17 °C 53.4 °F /  11.9 °C 29.74in /  1007hPa NE 2.0mph /  3.2km/h 2.0mph /  3.2km/h 72% 0.00in /  0mm 18.0 W/m2
07:10 62.8 °F /  17.1 °C 54.0 °F /  12.2 °C 29.75in /  1007.3hPa Calm   3.0mph /  4.8km/h 73% 0.00in /  0mm 19.0 W/m2
07:16 63.3 °F /  17.4 °C 54.1 °F /  12.3 °C 29.75in /  1007.3hPa ENE 0.9mph /  1.4km/h 5.0mph /  8km/h 72% 0.00in /  0mm 21.0 W/m2
07:22 63.7 °F /  17.6 °C 54.5 °F /  12.5 °C 29.75in /  1007.3hPa Calm   1.0mph /  1.6km/h 72% 0.00in /  0mm 21.0 W/m2
07:28 64.0 °F /  17.8 °C 54.9 °F /  12.7 °C 29.75in /  1007.3hPa Calm   2.0mph /  3.2km/h 72% 0.00in /  0mm 23.0 W/m2
07:35 64.6 °F /  18.1 °C 55.0 °F /  12.8 °C 29.76in /  1007.7hPa NE 0.9mph /  1.4km/h 4.0mph /  6.4km/h 71% 0.00in /  0mm 25.0 W/m2
07:41 65.3 °F /  18.5 °C 55.2 °F /  12.9 °C 29.75in /  1007.3hPa SE 4.9mph /  7.9km/h 6.0mph /  9.7km/h 70% 0.00in /  0mm 62.0 W/m2
07:47 66.0 °F /  18.9 °C 55.6 °F /  13.1 °C 29.76in /  1007.7hPa NE 2.9mph /  4.7km/h 6.0mph /  9.7km/h 69% 0.00in /  0mm 272.0 W/m2
07:53 66.7 °F /  19.3 °C 55.4 °F /  13 °C 29.76in /  1007.7hPa ESE 6.0mph /  9.7km/h 7.0mph /  11.3km/h 67% 0.00in /  0mm 315.0 W/m2
07:59 67.8 °F /  19.9 °C 56.1 °F /  13.4 °C 29.76in /  1007.7hPa NNE 2.9mph /  4.7km/h 5.0mph /  8km/h 66% 0.00in /  0mm 345.0 W/m2
08:07 69.4 °F /  20.8 °C 56.3 °F /  13.5 °C 29.76in /  1007.7hPa ENE 2.9mph /  4.7km/h 7.0mph /  11.3km/h 63% 0.00in /  0mm 373.0 W/m2
08:16 70.3 °F /  21.3 °C 56.3 °F /  13.5 °C 29.76in /  1007.7hPa NNE 2.9mph /  4.7km/h 7.0mph /  11.3km/h 61% 0.00in /  0mm 410.0 W/m2
08:22 70.9 °F /  21.6 °C 56.3 °F /  13.5 °C 29.76in /  1007.7hPa East 6.9mph /  11.1km/h 8.0mph /  12.9km/h 60% 0.00in /  0mm 432.0 W/m2
08:28 71.2 °F /  21.8 °C 56.1 °F /  13.4 °C 29.76in /  1007.7hPa East 2.9mph /  4.7km/h 7.0mph /  11.3km/h 59% 0.00in /  0mm 455.0 W/m2
08:34 71.8 °F /  22.1 °C 56.1 °F /  13.4 °C 29.76in /  1007.7hPa Calm   6.0mph /  9.7km/h 58% 0.00in /  0mm 480.0 W/m2
08:40 72.3 °F /  22.4 °C 56.3 °F /  13.5 °C 29.76in /  1007.7hPa East 2.9mph /  4.7km/h 5.0mph /  8km/h 57% 0.00in /  0mm 508.0 W/m2
08:46 73.0 °F /  22.8 °C 56.5 °F /  13.6 °C 29.76in /  1007.7hPa Calm   3.0mph /  4.8km/h 56% 0.00in /  0mm 534.0 W/m2
08:52 73.4 °F /  23 °C 56.7 °F /  13.7 °C 29.76in /  1007.7hPa ESE 2.0mph /  3.2km/h 5.0mph /  8km/h 56% 0.00in /  0mm 554.0 W/m2
09:01 73.6 °F /  23.1 °C 56.5 °F /  13.6 °C 29.75in /  1007.3hPa ESE 2.0mph /  3.2km/h 5.0mph /  8km/h 55% 0.00in /  0mm 582.0 W/m2
09:07 73.9 °F /  23.3 °C 56.8 °F /  13.8 °C 29.75in /  1007.3hPa East 0.9mph /  1.4km/h 4.0mph /  6.4km/h 55% 0.00in /  0mm 605.0 W/m2
09:15 74.8 °F /  23.8 °C 56.5 °F /  13.6 °C 29.75in /  1007.3hPa SE 0.9mph /  1.4km/h 4.0mph /  6.4km/h 53% 0.00in /  0mm 635.0 W/m2
09:21 75.6 °F /  24.2 °C 57.2 °F /  14 °C 29.75in /  1007.3hPa ESE 2.0mph /  3.2km/h 4.0mph /  6.4km/h 53% 0.00in /  0mm 656.0 W/m2
09:27 76.3 °F /  24.6 °C 56.8 °F /  13.8 °C 29.75in /  1007.3hPa NNE 6.0mph /  9.7km/h 7.0mph /  11.3km/h 51% 0.00in /  0mm 679.0 W/m2
09:33 76.5 °F /  24.7 °C 55.9 °F /  13.3 °C 29.75in /  1007.3hPa Calm   3.0mph /  4.8km/h 49% 0.00in /  0mm 701.0 W/m2
09:39 76.8 °F /  24.9 °C 56.3 °F /  13.5 °C 29.75in /  1007.3hPa Calm   4.0mph /  6.4km/h 49% 0.00in /  0mm 737.0 W/m2
09:45 77.2 °F /  25.1 °C 55.9 °F /  13.3 °C 29.75in /  1007.3hPa NW 2.0mph /  3.2km/h 8.0mph /  12.9km/h 48% 0.00in /  0mm 744.0 W/m2
09:52 77.5 °F /  25.3 °C 55.8 °F /  13.2 °C 29.75in /  1007.3hPa Calm   2.0mph /  3.2km/h 47% 0.00in /  0mm 795.0 W/m2
09:58 77.2 °F /  25.1 °C 56.5 °F /  13.6 °C 29.74in /  1007hPa Calm   2.0mph /  3.2km/h 49% 0.00in /  0mm 786.0 W/m2
10:04 77.9 °F /  25.5 °C 54.9 °F /  12.7 °C 29.75in /  1007.3hPa SE 2.0mph /  3.2km/h 5.0mph /  8km/h 45% 0.00in /  0mm 826.0 W/m2
10:10 78.3 °F /  25.7 °C 53.2 °F /  11.8 °C 29.75in /  1007.3hPa ESE 2.0mph /  3.2km/h 4.0mph /  6.4km/h 42% 0.00in /  0mm 830.0 W/m2
10:16 78.8 °F /  26 °C 53.1 °F /  11.7 °C 29.75in /  1007.3hPa Calm   7.0mph /  11.3km/h 41% 0.00in /  0mm 853.0 W/m2
10:22 79.3 °F /  26.3 °C 52.9 °F /  11.6 °C 29.75in /  1007.3hPa Calm   6.0mph /  9.7km/h 40% 0.00in /  0mm 895.0 W/m2
10:28 80.1 °F /  26.7 °C 53.6 °F /  12 °C 29.75in /  1007.3hPa East 4.9mph /  7.9km/h 8.0mph /  12.9km/h 40% 0.00in /  0mm 925.0 W/m2
10:35 80.4 °F /  26.9 °C 52.5 °F /  11.4 °C 29.75in /  1007.3hPa North 2.0mph /  3.2km/h 5.0mph /  8km/h 38% 0.00in /  0mm 1013.0 W/m2
10:41 80.8 °F /  27.1 °C 52.2 °F /  11.2 °C 29.75in /  1007.3hPa North 2.9mph /  4.7km/h 6.0mph /  9.7km/h 37% 0.00in /  0mm 932.0 W/m2
10:47 81.1 °F /  27.3 °C 52.3 °F /  11.3 °C 29.75in /  1007.3hPa ENE 2.9mph /  4.7km/h 8.0mph /  12.9km/h 37% 0.00in /  0mm 958.0 W/m2
10:53 81.7 °F /  27.6 °C 52.2 °F /  11.2 °C 29.75in /  1007.3hPa NNE 4.0mph /  6.4km/h 9.0mph /  14.5km/h 36% 0.00in /  0mm 990.0 W/m2
10:59 82.2 °F /  27.9 °C 52.5 °F /  11.4 °C 29.74in /  1007hPa NNE 4.9mph /  7.9km/h 6.0mph /  9.7km/h 36% 0.00in /  0mm 1027.0 W/m2
11:07 82.2 °F /  27.9 °C 51.8 °F /  11 °C 29.74in /  1007hPa NNW 4.0mph /  6.4km/h 7.0mph /  11.3km/h 35% 0.00in /  0mm 1034.0 W/m2
11:13 82.0 °F /  27.8 °C 51.6 °F /  10.9 °C 29.74in /  1007hPa NNW 4.0mph /  6.4km/h 8.0mph /  12.9km/h 35% 0.00in /  0mm 1042.0 W/m2
11:19 82.2 °F /  27.9 °C 51.8 °F /  11 °C 29.74in /  1007hPa NNW 2.9mph /  4.7km/h 5.0mph /  8km/h 35% 0.00in /  0mm 1086.0 W/m2
11:26 82.6 °F /  28.1 °C 51.4 °F /  10.8 °C 29.73in /  1006.7hPa NW 2.9mph /  4.7km/h 3.0mph /  4.8km/h 34% 0.00in /  0mm 1111.0 W/m2
11:32 83.1 °F /  28.4 °C 51.8 °F /  11 °C 29.73in /  1006.7hPa NE 6.9mph /  11.1km/h 9.0mph /  14.5km/h 34% 0.00in /  0mm 1199.0 W/m2
11:38 82.8 °F /  28.2 °C 51.4 °F /  10.8 °C 29.73in /  1006.7hPa NE 2.9mph /  4.7km/h 8.0mph /  12.9km/h 34% 0.00in /  0mm 221.0 W/m2
11:50 82.2 °F /  27.9 °C 51.1 °F /  10.6 °C 29.73in /  1006.7hPa SE 2.9mph /  4.7km/h 8.0mph /  12.9km/h 34% 0.00in /  0mm 1248.0 W/m2
11:56 82.6 °F /  28.1 °C 51.4 °F /  10.8 °C 29.72in /  1006.3hPa SSE 4.0mph /  6.4km/h 11.0mph /  17.7km/h 34% 0.00in /  0mm 253.0 W/m2
12:02 82.0 °F /  27.8 °C 51.6 °F /  10.9 °C 29.72in /  1006.3hPa NNE 2.9mph /  4.7km/h 5.0mph /  8km/h 35% 0.00in /  0mm 244.0 W/m2
12:08 82.6 °F /  28.1 °C 48.0 °F /  8.9 °C 29.72in /  1006.3hPa SSE 4.0mph /  6.4km/h 9.0mph /  14.5km/h 30% 0.00in /  0mm 1322.0 W/m2
12:15 82.4 °F /  28 °C 48.7 °F /  9.3 °C 29.72in /  1006.3hPa NNE 2.9mph /  4.7km/h 3.0mph /  4.8km/h 31% 0.00in /  0mm 304.0 W/m2
12:21 82.8 °F /  28.2 °C 46.4 °F /  8 °C 29.72in /  1006.3hPa SE 6.0mph /  9.7km/h 12.0mph /  19.3km/h 28% 0.00in /  0mm 1331.0 W/m2
12:27 83.7 °F /  28.7 °C 46.2 °F /  7.9 °C 29.72in /  1006.3hPa ESE 4.9mph /  7.9km/h 5.0mph /  8km/h 27% 0.00in /  0mm 1100.0 W/m2
12:33 84.2 °F /  29 °C 45.7 °F /  7.6 °C 29.72in /  1006.3hPa SE 4.0mph /  6.4km/h 11.0mph /  17.7km/h 26% 0.00in /  0mm 1187.0 W/m2
12:39 84.7 °F /  29.3 °C 46.0 °F /  7.8 °C 29.72in /  1006.3hPa SE 6.0mph /  9.7km/h 9.0mph /  14.5km/h 26% 0.00in /  0mm 1144.0 W/m2
12:45 85.3 °F /  29.6 °C 46.6 °F /  8.1 °C 29.71in /  1006hPa SE 4.9mph /  7.9km/h 8.0mph /  12.9km/h 26% 0.00in /  0mm 1201.0 W/m2
12:51 85.6 °F /  29.8 °C 46.8 °F /  8.2 °C 29.71in /  1006hPa SSW 2.9mph /  4.7km/h 10.0mph /  16.1km/h 26% 0.00in /  0mm 1304.0 W/m2
12:58 85.5 °F /  29.7 °C 45.7 °F /  7.6 °C 29.71in /  1006hPa North 2.9mph /  4.7km/h 4.0mph /  6.4km/h 25% 0.00in /  0mm 220.0 W/m2
13:04 84.6 °F /  29.2 °C 46.9 °F /  8.3 °C 29.71in /  1006hPa SSE 4.9mph /  7.9km/h 6.0mph /  9.7km/h 27% 0.00in /  0mm 1239.0 W/m2
13:10 84.9 °F /  29.4 °C 45.1 °F /  7.3 °C 29.71in /  1006hPa SE 2.0mph /  3.2km/h 6.0mph /  9.7km/h 25% 0.00in /  0mm 1202.0 W/m2
13:16 85.3 °F /  29.6 °C 45.5 °F /  7.5 °C 29.71in /  1006hPa East 6.0mph /  9.7km/h 10.0mph /  16.1km/h 25% 0.00in /  0mm 1141.0 W/m2
13:22 86.2 °F /  30.1 °C 46.2 °F /  7.9 °C 29.70in /  1005.6hPa SE 4.0mph /  6.4km/h 7.0mph /  11.3km/h 25% 0.00in /  0mm 1187.0 W/m2
13:28 85.8 °F /  29.9 °C 43.7 °F /  6.5 °C 29.70in /  1005.6hPa SE 6.9mph /  11.1km/h 8.0mph /  12.9km/h 23% 0.00in /  0mm 257.0 W/m2
13:34 85.8 °F /  29.9 °C 43.7 °F /  6.5 °C 29.70in /  1005.6hPa ESE 4.9mph /  7.9km/h 6.0mph /  9.7km/h 23% 0.00in /  0mm 183.0 W/m2
13:40 86.4 °F /  30.2 °C 40.6 °F /  4.8 °C 29.70in /  1005.6hPa SSW 6.0mph /  9.7km/h 8.0mph /  12.9km/h 20% 0.00in /  0mm 1146.0 W/m2
13:47 86.7 °F /  30.4 °C 42.1 °F /  5.6 °C 29.69in /  1005.3hPa SSW 0.9mph /  1.4km/h 5.0mph /  8km/h 21% 0.00in /  0mm 1139.0 W/m2
13:53 87.4 °F /  30.8 °C 45.1 °F /  7.3 °C 29.69in /  1005.3hPa SE 8.9mph /  14.3km/h 13.0mph /  20.9km/h 23% 0.00in /  0mm 1141.0 W/m2
13:59 87.3 °F /  30.7 °C 41.4 °F /  5.2 °C 29.69in /  1005.3hPa Calm   5.0mph /  8km/h 20% 0.00in /  0mm 1130.0 W/m2
14:05 87.3 °F /  30.7 °C 45.0 °F /  7.2 °C 29.69in /  1005.3hPa WSW 2.0mph /  3.2km/h 9.0mph /  14.5km/h 23% 0.00in /  0mm 1164.0 W/m2
14:11 87.4 °F /  30.8 °C 43.9 °F /  6.6 °C 29.68in /  1005hPa ESE 4.0mph /  6.4km/h 15.0mph /  24.1km/h 22% 0.00in /  0mm 1130.0 W/m2
14:19 87.6 °F /  30.9 °C 42.8 °F /  6 °C 29.68in /  1005hPa SSE 4.0mph /  6.4km/h 8.0mph /  12.9km/h 21% 0.00in /  0mm 153.0 W/m2
14:25 87.1 °F /  30.6 °C 42.4 °F /  5.8 °C 29.67in /  1004.6hPa Calm   3.0mph /  4.8km/h 21% 0.00in /  0mm 1171.0 W/m2
14:32 87.3 °F /  30.7 °C 42.6 °F /  5.9 °C 29.67in /  1004.6hPa SSE 6.0mph /  9.7km/h 8.0mph /  12.9km/h 21% 0.00in /  0mm 1176.0 W/m2
14:38 86.7 °F /  30.4 °C 44.4 °F /  6.9 °C 29.67in /  1004.6hPa East 4.0mph /  6.4km/h 10.0mph /  16.1km/h 23% 0.00in /  0mm 241.0 W/m2
14:44 86.2 °F /  30.1 °C 44.1 °F /  6.7 °C 29.67in /  1004.6hPa SE 8.1mph /  13km/h 12.0mph /  19.3km/h 23% 0.00in /  0mm 1179.0 W/m2
14:50 86.7 °F /  30.4 °C 44.4 °F /  6.9 °C 29.67in /  1004.6hPa Calm   11.0mph /  17.7km/h 23% 0.00in /  0mm 1092.0 W/m2
14:56 87.8 °F /  31 °C 44.2 °F /  6.8 °C 29.66in /  1004.3hPa SE 6.9mph /  11.1km/h 12.0mph /  19.3km/h 22% 0.00in /  0mm 1121.0 W/m2
15:02 88.5 °F /  31.4 °C 43.5 °F /  6.4 °C 29.66in /  1004.3hPa East 2.9mph /  4.7km/h 7.0mph /  11.3km/h 21% 0.00in /  0mm 390.0 W/m2
15:10 88.2 °F /  31.2 °C 44.6 °F /  7 °C 29.66in /  1004.3hPa SE 4.9mph /  7.9km/h 10.0mph /  16.1km/h 22% 0.00in /  0mm 288.0 W/m2
15:16 88.2 °F /  31.2 °C 44.6 °F /  7 °C 29.65in /  1003.9hPa ESE 2.9mph /  4.7km/h 9.0mph /  14.5km/h 22% 0.00in /  0mm 1069.0 W/m2
15:22 88.0 °F /  31.1 °C 44.4 °F /  6.9 °C 29.65in /  1003.9hPa NE 4.0mph /  6.4km/h 9.0mph /  14.5km/h 22% 0.00in /  0mm 1104.0 W/m2
15:28 87.4 °F /  30.8 °C 43.9 °F /  6.6 °C 29.65in /  1003.9hPa NNW 2.9mph /  4.7km/h 7.0mph /  11.3km/h 22% 0.00in /  0mm 1079.0 W/m2
15:35 88.2 °F /  31.2 °C 43.3 °F /  6.3 °C 29.64in /  1003.6hPa WSW 2.0mph /  3.2km/h 6.0mph /  9.7km/h 21% 0.00in /  0mm 1023.0 W/m2
15:41 89.2 °F /  31.8 °C 44.2 °F /  6.8 °C 29.64in /  1003.6hPa SSE 4.0mph /  6.4km/h 13.0mph /  20.9km/h 21% 0.00in /  0mm 1071.0 W/m2
15:47 88.3 °F /  31.3 °C 44.6 °F /  7 °C 29.64in /  1003.6hPa Calm   3.0mph /  4.8km/h 22% 0.00in /  0mm 185.0 W/m2
15:53 88.0 °F /  31.1 °C 44.4 °F /  6.9 °C 29.63in /  1003.3hPa ENE 0.9mph /  1.4km/h 8.0mph /  12.9km/h 22% 0.00in /  0mm 942.0 W/m2
15:59 88.7 °F /  31.5 °C 45.0 °F /  7.2 °C 29.63in /  1003.3hPa SE 10.1mph /  16.3km/h 10.1mph /  16.3km/h 22% 0.00in /  0mm 902.0 W/m2
16:05 89.4 °F /  31.9 °C 44.4 °F /  6.9 °C 29.63in /  1003.3hPa ESE 6.0mph /  9.7km/h 13.0mph /  20.9km/h 21% 0.00in /  0mm 837.0 W/m2
16:11 89.2 °F /  31.8 °C 45.5 °F /  7.5 °C 29.63in /  1003.3hPa SSE 4.0mph /  6.4km/h 7.0mph /  11.3km/h 22% 0.00in /  0mm 183.0 W/m2
16:17 88.3 °F /  31.3 °C 43.5 °F /  6.4 °C 29.63in /  1003.3hPa SE 6.0mph /  9.7km/h 8.0mph /  12.9km/h 21% 0.00in /  0mm 223.0 W/m2
16:24 87.8 °F /  31 °C 43.0 °F /  6.1 °C 29.63in /  1003.3hPa South 0.9mph /  1.4km/h 7.0mph /  11.3km/h 21% 0.00in /  0mm 169.0 W/m2
16:30 87.4 °F /  30.8 °C 43.9 °F /  6.6 °C 29.63in /  1003.3hPa Calm   5.0mph /  8km/h 22% 0.00in /  0mm 163.0 W/m2
16:36 88.0 °F /  31.1 °C 43.2 °F /  6.2 °C 29.62in /  1002.9hPa ENE 2.9mph /  4.7km/h 6.0mph /  9.7km/h 21% 0.00in /  0mm 715.0 W/m2
16:42 88.3 °F /  31.3 °C 42.3 °F /  5.7 °C 29.62in /  1002.9hPa ESE 4.0mph /  6.4km/h 5.0mph /  8km/h 20% 0.00in /  0mm 722.0 W/m2
16:48 88.9 °F /  31.6 °C 42.6 °F /  5.9 °C 29.62in /  1002.9hPa SW 2.0mph /  3.2km/h 6.0mph /  9.7km/h 20% 0.00in /  0mm 687.0 W/m2
16:54 88.3 °F /  31.3 °C 40.8 °F /  4.9 °C 29.62in /  1002.9hPa SE 2.9mph /  4.7km/h 6.0mph /  9.7km/h 19% 0.00in /  0mm 339.0 W/m2
17:00 87.8 °F /  31 °C 40.5 °F /  4.7 °C 29.62in /  1002.9hPa South 4.0mph /  6.4km/h 5.0mph /  8km/h 19% 0.00in /  0mm 260.0 W/m2
17:07 87.3 °F /  30.7 °C 38.7 °F /  3.7 °C 29.62in /  1002.9hPa SE 6.9mph /  11.1km/h 12.0mph /  19.3km/h 18% 0.00in /  0mm 105.0 W/m2
17:13 86.4 °F /  30.2 °C 39.2 °F /  4 °C 29.62in /  1002.9hPa ESE 4.0mph /  6.4km/h 5.0mph /  8km/h 19% 0.00in /  0mm 105.0 W/m2
17:19 85.8 °F /  29.9 °C 38.8 °F /  3.8 °C 29.62in /  1002.9hPa SSE 4.0mph /  6.4km/h 8.0mph /  12.9km/h 19% 0.00in /  0mm 134.0 W/m2
17:25 85.6 °F /  29.8 °C 38.7 °F /  3.7 °C 29.62in /  1002.9hPa SSE 2.9mph /  4.7km/h 6.0mph /  9.7km/h 19% 0.00in /  0mm 315.0 W/m2
17:35 86.4 °F /  30.2 °C 37.9 °F /  3.3 °C 29.62in /  1002.9hPa SSE 0.9mph /  1.4km/h 5.0mph /  8km/h 18% 0.00in /  0mm 550.0 W/m2
17:41 87.3 °F /  30.7 °C 37.2 °F /  2.9 °C 29.61in /  1002.6hPa Calm   1.0mph /  1.6km/h 17% 0.00in /  0mm 478.0 W/m2
17:48 88.0 °F /  31.1 °C 37.8 °F /  3.2 °C 29.62in /  1002.9hPa SE 6.0mph /  9.7km/h 9.0mph /  14.5km/h 17% 0.00in /  0mm 111.0 W/m2
17:54 87.8 °F /  31 °C 37.6 °F /  3.1 °C 29.62in /  1002.9hPa Calm   5.0mph /  8km/h 17% 0.00in /  0mm 429.0 W/m2
18:00 87.4 °F /  30.8 °C 37.2 °F /  2.9 °C 29.62in /  1002.9hPa SE 2.0mph /  3.2km/h 5.0mph /  8km/h 17% 0.00in /  0mm 332.0 W/m2
18:06 87.1 °F /  30.6 °C 38.5 °F /  3.6 °C 29.62in /  1002.9hPa SSW 8.1mph /  13km/h 8.1mph /  13km/h 18% 0.00in /  0mm 353.0 W/m2
18:12 87.1 °F /  30.6 °C 38.5 °F /  3.6 °C 29.62in /  1002.9hPa SSE 2.9mph /  4.7km/h 5.0mph /  8km/h 18% 0.00in /  0mm 315.0 W/m2
18:18 87.4 °F /  30.8 °C 37.2 °F /  2.9 °C 29.62in /  1002.9hPa SE 2.9mph /  4.7km/h 7.0mph /  11.3km/h 17% 0.00in /  0mm 283.0 W/m2
18:24 87.6 °F /  30.9 °C 37.4 °F /  3 °C 29.62in /  1002.9hPa SSE 2.9mph /  4.7km/h 6.0mph /  9.7km/h 17% 0.00in /  0mm 33.0 W/m2
18:30 86.7 °F /  30.4 °C 38.1 °F /  3.4 °C 29.62in /  1002.9hPa ESE 2.9mph /  4.7km/h 8.0mph /  12.9km/h 18% 0.00in /  0mm 28.0 W/m2
18:36 86.2 °F /  30.1 °C 37.8 °F /  3.2 °C 29.62in /  1002.9hPa SSE 6.0mph /  9.7km/h 8.0mph /  12.9km/h 18% 0.00in /  0mm 204.0 W/m2
18:43 86.2 °F /  30.1 °C 39.0 °F /  3.9 °C 29.62in /  1002.9hPa ESE 2.9mph /  4.7km/h 3.0mph /  4.8km/h 19% 0.00in /  0mm 25.0 W/m2
18:49 85.5 °F /  29.7 °C 39.7 °F /  4.3 °C 29.62in /  1002.9hPa ESE 2.0mph /  3.2km/h 4.0mph /  6.4km/h 20% 0.00in /  0mm 25.0 W/m2
18:55 84.7 °F /  29.3 °C 39.2 °F /  4 °C 29.62in /  1002.9hPa Calm   6.0mph /  9.7km/h 20% 0.00in /  0mm 18.0 W/m2
19:01 84.0 °F /  28.9 °C 38.7 °F /  3.7 °C 29.63in /  1003.3hPa SE 4.0mph /  6.4km/h 8.0mph /  12.9km/h 20% 0.00in /  0mm 16.0 W/m2
19:07 83.5 °F /  28.6 °C 38.1 °F /  3.4 °C 29.63in /  1003.3hPa SE 2.0mph /  3.2km/h 2.0mph /  3.2km/h 20% 0.00in /  0mm 14.0 W/m2
19:13 83.1 °F /  28.4 °C 37.9 °F /  3.3 °C 29.63in /  1003.3hPa SW 4.9mph /  7.9km/h 9.0mph /  14.5km/h 20% 0.00in /  0mm 14.0 W/m2
19:19 82.8 °F /  28.2 °C 38.8 °F /  3.8 °C 29.64in /  1003.6hPa SSE 2.9mph /  4.7km/h 8.0mph /  12.9km/h 21% 0.00in /  0mm 12.0 W/m2
19:25 82.6 °F /  28.1 °C 37.4 °F /  3 °C 29.64in /  1003.6hPa SE 2.0mph /  3.2km/h 4.0mph /  6.4km/h 20% 0.00in /  0mm 11.0 W/m2
19:32 82.2 °F /  27.9 °C 38.5 °F /  3.6 °C 29.64in /  1003.6hPa SSE 2.0mph /  3.2km/h 5.0mph /  8km/h 21% 0.00in /  0mm 7.0 W/m2
19:38 81.9 °F /  27.7 °C 38.1 °F /  3.4 °C 29.64in /  1003.6hPa South 4.0mph /  6.4km/h 9.0mph /  14.5km/h 21% 0.00in /  0mm 5.0 W/m2
19:44 81.7 °F /  27.6 °C 37.9 °F /  3.3 °C 29.65in /  1003.9hPa Calm   4.0mph /  6.4km/h 21% 0.00in /  0mm 0.0 W/m2
19:50 81.3 °F /  27.4 °C 37.6 °F /  3.1 °C 29.65in /  1003.9hPa SE 6.9mph /  11.1km/h 11.0mph /  17.7km/h 21% 0.00in /  0mm 0.0 W/m2
19:56 81.0 °F /  27.2 °C 37.4 °F /  3 °C 29.65in /  1003.9hPa SSE 4.9mph /  7.9km/h 6.0mph /  9.7km/h 21% 0.00in /  0mm 0.0 W/m2
20:02 80.8 °F /  27.1 °C 38.5 °F /  3.6 °C 29.65in /  1003.9hPa SE 0.9mph /  1.4km/h 5.0mph /  8km/h 22% 0.00in /  0mm 0.0 W/m2
20:08 80.4 °F /  26.9 °C 38.1 °F /  3.4 °C 29.66in /  1004.3hPa SSE 2.0mph /  3.2km/h 7.0mph /  11.3km/h 22% 0.00in /  0mm 0.0 W/m2
20:14 80.2 °F /  26.8 °C 36.7 °F /  2.6 °C 29.66in /  1004.3hPa WSW 4.0mph /  6.4km/h 11.0mph /  17.7km/h 21% 0.00in /  0mm 0.0 W/m2
20:21 80.1 °F /  26.7 °C 37.8 °F /  3.2 °C 29.66in /  1004.3hPa ESE 4.0mph /  6.4km/h 7.0mph /  11.3km/h 22% 0.00in /  0mm 0.0 W/m2
20:27 79.9 °F /  26.6 °C 37.6 °F /  3.1 °C 29.66in /  1004.3hPa SE 2.0mph /  3.2km/h 8.0mph /  12.9km/h 22% 0.00in /  0mm 0.0 W/m2
20:33 79.5 °F /  26.4 °C 37.4 °F /  3 °C 29.66in /  1004.3hPa South 4.9mph /  7.9km/h 12.0mph /  19.3km/h 22% 0.00in /  0mm 0.0 W/m2
20:39 79.5 °F /  26.4 °C 37.4 °F /  3 °C 29.66in /  1004.3hPa SE 4.9mph /  7.9km/h 7.0mph /  11.3km/h 22% 0.00in /  0mm 0.0 W/m2
20:45 79.3 °F /  26.3 °C 38.3 °F /  3.5 °C 29.67in /  1004.6hPa SSE 8.9mph /  14.3km/h 9.0mph /  14.5km/h 23% 0.00in /  0mm 0.0 W/m2
20:51 79.2 °F /  26.2 °C 38.1 °F /  3.4 °C 29.67in /  1004.6hPa South 2.9mph /  4.7km/h 7.0mph /  11.3km/h 23% 0.00in /  0mm 0.0 W/m2
20:57 79.0 °F /  26.1 °C 37.9 °F /  3.3 °C 29.67in /  1004.6hPa ESE 2.9mph /  4.7km/h 5.0mph /  8km/h 23% 0.00in /  0mm 0.0 W/m2
21:04 78.6 °F /  25.9 °C 37.8 °F /  3.2 °C 29.68in /  1005hPa Calm   1.0mph /  1.6km/h 23% 0.00in /  0mm 0.0 W/m2
21:10 78.4 °F /  25.8 °C 38.7 °F /  3.7 °C 29.68in /  1005hPa Calm   1.0mph /  1.6km/h 24% 0.00in /  0mm 0.0 W/m2
21:16 78.1 °F /  25.6 °C 40.5 °F /  4.7 °C 29.68in /  1005hPa NE 0.9mph /  1.4km/h 4.0mph /  6.4km/h 26% 0.00in /  0mm 0.0 W/m2
21:22 77.7 °F /  25.4 °C 42.1 °F /  5.6 °C 29.68in /  1005hPa Calm   3.0mph /  4.8km/h 28% 0.00in /  0mm 0.0 W/m2
21:28 77.4 °F /  25.2 °C 42.6 °F /  5.9 °C 29.69in /  1005.3hPa Calm   1.0mph /  1.6km/h 29% 0.00in /  0mm 0.0 W/m2
21:34 77.0 °F /  25 °C 44.1 °F /  6.7 °C 29.69in /  1005.3hPa Calm   1.0mph /  1.6km/h 31% 0.00in /  0mm 0.0 W/m2
21:40 76.8 °F /  24.9 °C 47.1 °F /  8.4 °C 29.70in /  1005.6hPa SSE 0.9mph /  1.4km/h 3.0mph /  4.8km/h 35% 0.00in /  0mm 0.0 W/m2
21:46 76.8 °F /  24.9 °C 47.8 °F /  8.8 °C 29.70in /  1005.6hPa Calm   2.0mph /  3.2km/h 36% 0.00in /  0mm 0.0 W/m2
21:53 76.8 °F /  24.9 °C 47.1 °F /  8.4 °C 29.70in /  1005.6hPa SSW 0.9mph /  1.4km/h 5.0mph /  8km/h 35% 0.00in /  0mm 0.0 W/m2
21:59 76.8 °F /  24.9 °C 49.3 °F /  9.6 °C 29.70in /  1005.6hPa SE 2.0mph /  3.2km/h 2.0mph /  3.2km/h 38% 0.00in /  0mm 0.0 W/m2
22:05 76.8 °F /  24.9 °C 51.3 °F /  10.7 °C 29.70in /  1005.6hPa SW 0.9mph /  1.4km/h 7.0mph /  11.3km/h 41% 0.00in /  0mm 0.0 W/m2
22:11 76.6 °F /  24.8 °C 51.8 °F /  11 °C 29.70in /  1005.6hPa WNW 0.9mph /  1.4km/h 6.0mph /  9.7km/h 42% 0.00in /  0mm 0.0 W/m2
22:17 76.5 °F /  24.7 °C 51.6 °F /  10.9 °C 29.70in /  1005.6hPa ESE 0.9mph /  1.4km/h 9.0mph /  14.5km/h 42% 0.00in /  0mm 0.0 W/m2
22:23 76.5 °F /  24.7 °C 51.6 °F /  10.9 °C 29.71in /  1006hPa Calm   5.0mph /  8km/h 42% 0.00in /  0mm 0.0 W/m2
22:30 76.1 °F /  24.5 °C 51.3 °F /  10.7 °C 29.71in /  1006hPa South 2.0mph /  3.2km/h 5.0mph /  8km/h 42% 0.00in /  0mm 0.0 W/m2
22:35 75.9 °F /  24.4 °C 51.3 °F /  10.7 °C 29.71in /  1006hPa SSW 2.9mph /  4.7km/h 7.0mph /  11.3km/h 42% 0.00in /  0mm 0.0 W/m2
22:42 75.6 °F /  24.2 °C 51.4 °F /  10.8 °C 29.72in /  1006.3hPa SE 4.0mph /  6.4km/h 4.0mph /  6.4km/h 43% 0.00in /  0mm 0.0 W/m2
22:48 75.4 °F /  24.1 °C 50.7 °F /  10.4 °C 29.72in /  1006.3hPa SSE 2.9mph /  4.7km/h 9.0mph /  14.5km/h 42% 0.00in /  0mm 0.0 W/m2
22:54 74.8 °F /  23.8 °C 49.6 °F /  9.8 °C 29.72in /  1006.3hPa SSE 6.9mph /  11.1km/h 11.0mph /  17.7km/h 41% 0.00in /  0mm 0.0 W/m2
23:00 74.5 °F /  23.6 °C 49.8 °F /  9.9 °C 29.72in /  1006.3hPa SSE 8.9mph /  14.3km/h 12.0mph /  19.3km/h 42% 0.00in /  0mm 0.0 W/m2
23:06 74.1 °F /  23.4 °C 50.2 °F /  10.1 °C 29.72in /  1006.3hPa South 2.9mph /  4.7km/h 14.0mph /  22.5km/h 43% 0.00in /  0mm 0.0 W/m2
23:12 73.8 °F /  23.2 °C 49.8 °F /  9.9 °C 29.72in /  1006.3hPa SSE 4.9mph /  7.9km/h 9.0mph /  14.5km/h 43% 0.00in /  0mm 0.0 W/m2
23:16 73.6 °F /  23.1 °C 50.4 °F /  10.2 °C 29.72in /  1006.3hPa Calm   5.0mph /  8km/h 44% 0.00in /  0mm 0.0 W/m2
23:22 73.2 °F /  22.9 °C 50.0 °F /  10 °C 29.72in /  1006.3hPa SSE 4.0mph /  6.4km/h 11.0mph /  17.7km/h 44% 0.00in /  0mm 0.0 W/m2
23:28 73.0 °F /  22.8 °C 50.4 °F /  10.2 °C 29.72in /  1006.3hPa SE 2.0mph /  3.2km/h 7.0mph /  11.3km/h 45% 0.00in /  0mm 0.0 W/m2
23:34 72.9 °F /  22.7 °C 50.4 °F /  10.2 °C 29.72in /  1006.3hPa South 2.9mph /  4.7km/h 11.0mph /  17.7km/h 45% 0.00in /  0mm 0.0 W/m2
23:40 72.7 °F /  22.6 °C 50.7 °F /  10.4 °C 29.72in /  1006.3hPa SE 2.9mph /  4.7km/h 9.0mph /  14.5km/h 46% 0.00in /  0mm 0.0 W/m2
23:46 72.3 °F /  22.4 °C 50.9 °F /  10.5 °C 29.72in /  1006.3hPa SSE 2.0mph /  3.2km/h 12.0mph /  19.3km/h 47% 0.00in /  0mm 0.0 W/m2
23:52 72.1 °F /  22.3 °C 50.7 °F /  10.4 °C 29.72in /  1006.3hPa SE 6.0mph /  9.7km/h 8.0mph /  12.9km/h 47% 0.00in /  0mm 0.0 W/m2
23:58 72.0 °F /  22.2 °C 50.7 °F /  10.4 °C 29.72in /  1006.3hPa SSW 6.9mph /  11.1km/h 9.0mph /  14.5km/h 47% 0.00in /  0mm 0.0 W/m2
Olympia, Windhoek, Namibia
Compliments of Weather Underground - 3 mb